createdAt,value
2023-05-08T00:01:40.151Z,7.13
2023-05-08T00:04:07.313Z,6.93
2023-05-08T00:06:34.223Z,12.55
2023-05-08T00:09:01.306Z,10.20
2023-05-08T00:11:28.152Z,9.98
2023-05-08T00:13:54.924Z,8.48
2023-05-08T00:16:22.118Z,8.07
2023-05-08T00:18:49.126Z,8.48
2023-05-08T00:21:15.931Z,7.50
2023-05-08T00:23:43.549Z,7.00
2023-05-08T00:26:10.620Z,6.90
2023-05-08T00:28:37.626Z,7.97
2023-05-08T00:31:04.625Z,7.65
2023-05-08T00:33:31.546Z,8.52
2023-05-08T00:36:05.701Z,7.72
2023-05-08T00:38:34.062Z,7.93
2023-05-08T00:41:01.742Z,7.55
2023-05-08T00:43:29.409Z,8.27
2023-05-08T00:45:58.751Z,7.95
2023-05-08T00:48:29.021Z,9.30
2023-05-08T00:50:57.410Z,9.15
2023-05-08T00:53:27.368Z,10.48
2023-05-08T00:55:54.901Z,8.45
2023-05-08T00:58:25.995Z,8.18
2023-05-08T01:00:55.434Z,8.20
2023-05-08T01:03:24.043Z,8.40
2023-05-08T01:05:51.110Z,8.13
2023-05-08T01:08:18.329Z,9.15
2023-05-08T01:10:48.509Z,7.80
2023-05-08T01:13:33.960Z,8.30
2023-05-08T01:16:12.049Z,9.93
2023-05-08T01:21:39.455Z,9.30
2023-05-08T01:24:42.745Z,10.65
2023-05-08T01:27:47.274Z,9.38
2023-05-08T01:30:35.661Z,8.85
2023-05-08T01:33:14.082Z,10.43
2023-05-08T01:35:50.608Z,9.52
2023-05-08T01:38:30.775Z,9.88
2023-05-08T01:41:08.698Z,10.20
2023-05-08T01:43:56.893Z,12.82
2023-05-08T01:46:27.121Z,11.80
2023-05-08T01:49:20.029Z,10.75
2023-05-08T01:51:53.624Z,9.65
2023-05-08T01:54:25.288Z,9.68
2023-05-08T01:56:55.976Z,8.18
2023-05-08T01:59:26.352Z,10.43
2023-05-08T02:01:57.399Z,10.00
2023-05-08T02:04:25.678Z,10.13
2023-05-08T02:09:22.795Z,9.82
2023-05-08T02:11:50.956Z,9.75
2023-05-08T02:14:20.482Z,10.27
2023-05-08T02:16:50.745Z,11.75
2023-05-08T02:19:20.384Z,10.50
2023-05-08T02:21:48.967Z,12.07
2023-05-08T02:24:17.265Z,10.02
2023-05-08T02:26:46.240Z,12.23
2023-05-08T02:29:13.962Z,12.18
2023-05-08T02:31:42.554Z,12.48
2023-05-08T02:34:12.016Z,10.75
2023-05-08T02:36:40.880Z,12.15
2023-05-08T02:39:12.267Z,11.90
2023-05-08T02:41:41.223Z,13.00
2023-05-08T02:44:09.539Z,15.27
2023-05-08T02:46:56.239Z,11.15
2023-05-08T02:52:37.066Z,12.77
2023-05-08T02:55:07.493Z,13.63
2023-05-08T02:58:12.575Z,12.13
2023-05-08T03:00:58.776Z,14.45
2023-05-08T03:03:31.273Z,15.90
2023-05-08T03:06:00.732Z,14.13
2023-05-08T03:08:34.352Z,12.65
2023-05-08T03:11:08.317Z,13.30
2023-05-08T03:13:37.034Z,13.75
2023-05-08T03:16:06.561Z,12.10
2023-05-08T03:18:47.438Z,12.90
2023-05-08T03:21:19.545Z,12.20
2023-05-08T03:23:49.568Z,13.80
2023-05-08T03:26:21.282Z,13.35
2023-05-08T03:28:49.922Z,13.63
2023-05-08T03:31:23.051Z,13.65
2023-05-08T03:33:54.704Z,14.45
2023-05-08T03:36:24.918Z,15.55
2023-05-08T03:38:53.147Z,14.65
2023-05-08T03:41:22.297Z,16.90
2023-05-08T03:43:50.184Z,13.98
2023-05-08T03:46:18.101Z,14.32
2023-05-08T03:48:46.876Z,13.32
2023-05-08T03:51:16.298Z,15.35
2023-05-08T03:53:43.753Z,14.48
2023-05-08T03:56:10.597Z,15.85
2023-05-08T03:58:43.666Z,18.05
2023-05-08T04:01:41.828Z,16.00
2023-05-08T04:04:20.974Z,15.93
2023-05-08T04:07:03.939Z,15.63
2023-05-08T04:09:55.377Z,13.52
2023-05-08T04:12:38.758Z,14.98
2023-05-08T04:15:21.487Z,14.93
2023-05-08T04:18:06.371Z,16.83
2023-05-08T04:20:34.374Z,15.73
2023-05-08T04:23:03.796Z,15.95
2023-05-08T04:25:33.723Z,17.35
2023-05-08T04:28:02.552Z,15.55
2023-05-08T04:30:31.437Z,18.58
2023-05-08T04:33:00.076Z,15.20
2023-05-08T04:35:27.255Z,13.98
2023-05-08T04:37:55.267Z,16.67
2023-05-08T04:40:23.117Z,15.23
2023-05-08T04:42:50.936Z,14.82
2023-05-08T04:45:19.415Z,13.63
2023-05-08T04:47:47.090Z,13.32
2023-05-08T04:50:14.256Z,12.98
2023-05-08T04:52:42.768Z,10.60
2023-05-08T04:55:10.176Z,11.77
2023-05-08T04:57:38.844Z,10.93
2023-05-08T05:00:06.825Z,12.83
2023-05-08T05:02:37.840Z,10.05
2023-05-08T05:05:06.067Z,10.30
2023-05-08T05:07:32.871Z,14.82
2023-05-08T05:10:00.817Z,8.80
2023-05-08T05:12:28.853Z,9.95
2023-05-08T05:14:56.006Z,9.90
2023-05-08T05:17:24.205Z,10.18
2023-05-08T05:19:53.311Z,11.50
2023-05-08T05:22:20.483Z,8.25
2023-05-08T05:24:48.054Z,12.73
2023-05-08T05:27:15.524Z,8.50
2023-05-08T05:29:42.518Z,8.60
2023-05-08T05:32:11.460Z,7.93
2023-05-08T05:34:38.545Z,9.15
2023-05-08T05:37:05.531Z,8.23
2023-05-08T05:39:32.670Z,8.77
2023-05-08T05:41:59.933Z,8.93
2023-05-08T05:44:27.176Z,8.65
2023-05-08T05:46:54.803Z,8.73
2023-05-08T05:49:22.096Z,8.05
2023-05-08T05:51:49.009Z,8.87
2023-05-08T05:54:16.912Z,7.60
2023-05-08T05:56:44.663Z,7.53
2023-05-08T05:59:11.563Z,7.20
2023-05-08T06:01:39.341Z,6.28
2023-05-08T06:04:06.512Z,6.47
2023-05-08T06:06:33.564Z,6.75
2023-05-08T06:09:00.743Z,6.95
2023-05-08T06:11:27.569Z,5.88
2023-05-08T06:13:54.542Z,5.15
2023-05-08T06:16:23.125Z,4.93
2023-05-08T06:18:50.954Z,7.38
2023-05-08T06:21:18.113Z,5.07
2023-05-08T06:23:45.004Z,5.70
2023-05-08T06:26:12.048Z,5.32
2023-05-08T06:28:38.991Z,6.07
2023-05-08T06:31:06.022Z,4.32
2023-05-08T06:33:33.009Z,3.63
2023-05-08T06:36:00.559Z,5.00
2023-05-08T06:38:27.585Z,3.85
2023-05-08T06:40:57.644Z,4.10
2023-05-08T06:43:24.670Z,4.43
2023-05-08T06:45:53.121Z,4.22
2023-05-08T06:48:20.889Z,12.00
2023-05-08T06:50:48.198Z,5.10
2023-05-08T06:53:15.084Z,2.70
2023-05-08T06:55:44.078Z,4.05
2023-05-08T06:58:11.133Z,3.40
2023-05-08T07:00:38.003Z,4.47
2023-05-08T07:03:05.135Z,2.67
2023-05-08T07:05:32.114Z,2.83
2023-05-08T07:07:59.094Z,2.70
2023-05-08T07:10:26.094Z,2.72
2023-05-08T07:12:53.368Z,4.20
2023-05-08T07:15:26.090Z,4.63
2023-05-08T07:17:54.073Z,2.50
2023-05-08T07:20:21.508Z,3.10
2023-05-08T07:22:48.807Z,2.95
2023-05-08T07:25:16.535Z,4.20
2023-05-08T07:27:43.645Z,1.65
2023-05-08T07:30:11.146Z,2.90
2023-05-08T07:32:39.369Z,1.55
2023-05-08T07:35:10.972Z,2.15
2023-05-08T07:37:39.575Z,1.95
2023-05-08T07:40:07.110Z,2.33
2023-05-08T07:42:42.969Z,2.35
2023-05-08T07:45:11.660Z,2.17
2023-05-08T07:47:48.060Z,4.15
2023-05-08T07:50:15.229Z,2.22
2023-05-08T07:52:42.330Z,4.88
2023-05-08T07:55:09.494Z,6.07
2023-05-08T07:57:41.184Z,2.60
2023-05-08T08:00:10.813Z,6.53
2023-05-08T08:02:41.177Z,4.63
2023-05-08T08:05:09.068Z,4.43
2023-05-08T08:07:36.257Z,4.03
2023-05-08T08:10:04.668Z,4.50
2023-05-08T08:14:59.106Z,4.68
2023-05-08T08:17:28.517Z,3.60
2023-05-08T08:19:56.542Z,2.88
2023-05-08T08:22:24.304Z,3.17
2023-05-08T08:24:54.084Z,2.40
2023-05-08T08:27:22.227Z,2.22
2023-05-08T08:29:52.531Z,2.65
2023-05-08T08:32:25.894Z,2.67
2023-05-08T08:34:52.814Z,3.28
2023-05-08T08:37:19.710Z,3.58
2023-05-08T08:39:48.353Z,2.30
2023-05-08T08:42:15.539Z,2.95
2023-05-08T08:44:43.257Z,3.95
2023-05-08T08:47:14.126Z,4.75
2023-05-08T08:49:49.681Z,2.08
2023-05-08T08:52:26.784Z,3.08
2023-05-08T08:54:56.954Z,4.13
2023-05-08T08:57:26.302Z,5.03
2023-05-08T08:59:54.949Z,4.13
2023-05-08T09:02:24.022Z,2.92
2023-05-08T09:04:52.136Z,4.30
2023-05-08T09:07:19.388Z,3.72
2023-05-08T09:09:48.709Z,2.97
2023-05-08T09:12:15.580Z,2.55
2023-05-08T09:14:42.702Z,3.33
2023-05-08T09:17:10.140Z,2.65
2023-05-08T09:19:37.215Z,5.97
2023-05-08T09:22:06.889Z,3.58
2023-05-08T09:24:59.380Z,4.10
2023-05-08T09:27:28.200Z,3.33
2023-05-08T09:30:09.290Z,2.22
2023-05-08T09:32:41.007Z,7.80
2023-05-08T09:35:11.388Z,3.38
2023-05-08T09:37:44.073Z,2.22
2023-05-08T09:40:15.082Z,3.17
2023-05-08T09:42:42.287Z,2.35
2023-05-08T09:45:09.976Z,3.33
2023-05-08T09:47:40.243Z,3.30
2023-05-08T09:50:12.474Z,2.65
2023-05-08T09:52:47.031Z,5.28
2023-05-08T09:55:14.022Z,2.58
2023-05-08T09:57:57.035Z,3.08
2023-05-08T10:00:28.362Z,5.38
2023-05-08T10:03:01.020Z,3.05
2023-05-08T10:05:34.546Z,4.57
2023-05-08T10:08:22.775Z,2.60
2023-05-08T10:10:50.395Z,3.35
2023-05-08T10:13:17.396Z,3.78
2023-05-08T10:15:44.962Z,8.45
2023-05-08T10:18:12.381Z,2.15
2023-05-08T10:20:45.178Z,2.10
2023-05-08T10:23:17.557Z,1.55
2023-05-08T10:25:54.145Z,3.53
2023-05-08T10:28:37.340Z,4.13
2023-05-08T10:31:07.376Z,2.20
2023-05-08T10:33:36.737Z,3.85
2023-05-08T10:36:04.153Z,2.20
2023-05-08T10:38:31.867Z,3.47
2023-05-08T10:41:02.514Z,2.88
2023-05-08T10:43:31.379Z,3.67
2023-05-08T10:46:01.509Z,3.88
2023-05-08T10:48:31.483Z,4.07
2023-05-08T10:51:27.202Z,2.17
2023-05-08T10:54:08.807Z,3.15
2023-05-08T10:56:38.495Z,2.97
2023-05-08T10:59:06.450Z,3.35
2023-05-08T11:01:33.553Z,3.35
2023-05-08T11:04:00.793Z,2.55
2023-05-08T11:06:47.016Z,5.70
2023-05-08T11:09:43.148Z,4.40
2023-05-08T11:12:18.812Z,2.08
2023-05-08T11:14:56.170Z,5.43
2023-05-08T11:17:25.013Z,1.70
2023-05-08T11:20:00.674Z,4.57
2023-05-08T11:22:33.152Z,3.13
2023-05-08T11:25:09.687Z,1.55
2023-05-08T11:27:40.741Z,6.15
2023-05-08T11:30:35.030Z,4.50
2023-05-08T11:33:05.137Z,3.05
2023-05-08T11:35:55.446Z,1.50
2023-05-08T11:38:28.205Z,3.83
2023-05-08T11:41:07.247Z,1.88
2023-05-08T11:43:44.228Z,2.38
2023-05-08T11:46:19.704Z,5.80
2023-05-08T11:48:47.840Z,5.55
2023-05-08T11:51:19.586Z,3.15
2023-05-08T11:53:47.503Z,4.47
2023-05-08T11:56:14.811Z,2.50
2023-05-08T11:58:41.845Z,4.37
2023-05-08T12:01:09.076Z,2.57
2023-05-08T12:03:36.173Z,2.88
2023-05-08T12:06:03.431Z,2.30
2023-05-08T12:08:30.493Z,3.10
2023-05-08T12:10:58.227Z,2.00
2023-05-08T12:15:58.637Z,5.13
2023-05-08T12:18:27.691Z,2.25
2023-05-08T12:20:57.585Z,9.77
2023-05-08T12:23:32.226Z,2.03
2023-05-08T12:26:00.740Z,2.00
2023-05-08T12:28:28.082Z,4.13
2023-05-08T12:33:22.331Z,2.47
2023-05-08T12:38:16.404Z,2.85
2023-05-08T12:40:56.222Z,1.98
2023-05-08T12:43:36.076Z,4.18
2023-05-08T12:46:04.657Z,3.25
2023-05-08T12:48:32.001Z,2.38
2023-05-08T12:51:03.903Z,3.22
2023-05-08T12:53:33.368Z,4.65
2023-05-08T12:56:04.478Z,2.88
2023-05-08T12:58:33.979Z,2.17
2023-05-08T13:01:19.177Z,2.05
2023-05-08T13:04:01.402Z,4.63
2023-05-08T13:06:31.766Z,1.77
2023-05-08T13:08:58.846Z,3.67
2023-05-08T13:14:01.224Z,3.53
2023-05-08T13:16:28.258Z,1.63
2023-05-08T13:23:49.162Z,2.50
2023-05-08T13:26:16.127Z,2.17
2023-05-08T13:31:12.895Z,2.53
2023-05-08T13:33:40.023Z,4.55
2023-05-08T13:36:07.102Z,1.92
2023-05-08T13:38:34.766Z,3.42
2023-05-08T13:41:01.837Z,2.88
2023-05-08T13:43:28.843Z,2.47
2023-05-08T13:45:55.934Z,4.63
2023-05-08T13:48:23.172Z,2.38
2023-05-08T13:50:50.230Z,2.90
2023-05-08T13:53:17.127Z,2.47
2023-05-08T13:55:44.961Z,1.50
2023-05-08T13:58:11.983Z,1.98
2023-05-08T14:00:38.942Z,5.75
2023-05-08T14:03:09.224Z,3.67
2023-05-08T14:05:36.314Z,3.80
2023-05-08T14:08:03.405Z,4.15
2023-05-08T14:12:57.457Z,1.92
2023-05-08T14:18:03.596Z,1.75
2023-05-08T14:22:59.940Z,1.40
2023-05-08T14:25:27.426Z,11.32
2023-05-08T14:27:54.370Z,2.95
2023-05-08T14:30:21.503Z,3.70
2023-05-08T14:32:48.759Z,3.22
2023-05-08T14:35:16.363Z,2.65
2023-05-08T14:40:10.628Z,0.90
2023-05-08T14:45:10.441Z,2.10
2023-05-08T14:47:38.759Z,1.98
2023-05-08T14:50:06.364Z,1.98
2023-05-08T14:52:33.404Z,4.88
2023-05-08T14:55:00.636Z,2.55
2023-05-08T14:57:29.360Z,1.15
2023-05-08T14:59:57.181Z,2.72
2023-05-08T15:02:24.433Z,2.08
2023-05-08T15:04:52.030Z,2.92
2023-05-08T15:07:18.947Z,1.60
2023-05-08T15:09:46.224Z,1.70
2023-05-08T15:14:39.954Z,3.72
2023-05-08T15:17:07.065Z,5.40
2023-05-08T15:19:34.388Z,3.85
2023-05-08T15:22:01.270Z,3.65
2023-05-08T15:24:28.325Z,3.08
2023-05-08T15:26:55.236Z,4.45
2023-05-08T15:29:22.356Z,3.53
2023-05-08T15:31:49.269Z,5.30
2023-05-08T15:34:16.238Z,2.80
2023-05-08T15:36:43.209Z,2.63
2023-05-08T15:39:10.125Z,2.63
2023-05-08T15:41:39.364Z,2.25
2023-05-08T15:44:06.972Z,2.72
2023-05-08T15:46:34.176Z,6.40
2023-05-08T15:49:02.795Z,1.58
2023-05-08T15:51:30.411Z,4.72
2023-05-08T15:53:58.361Z,6.68
2023-05-08T15:58:53.250Z,3.22
2023-05-08T16:01:21.265Z,1.77
2023-05-08T16:03:49.140Z,2.28
2023-05-08T16:06:16.812Z,2.22
2023-05-08T16:11:11.197Z,4.65
2023-05-08T16:13:38.169Z,5.68
2023-05-08T16:16:05.817Z,2.78
2023-05-08T16:18:32.974Z,2.72
2023-05-08T16:21:00.250Z,2.38
2023-05-08T16:25:54.810Z,3.20
2023-05-08T16:28:21.787Z,3.42
2023-05-08T16:30:48.743Z,2.23
2023-05-08T16:33:17.441Z,3.30
2023-05-08T16:35:44.439Z,2.63
2023-05-08T16:38:11.706Z,3.72
2023-05-08T16:40:38.739Z,5.53
2023-05-08T16:43:05.835Z,3.65
2023-05-08T16:45:34.416Z,1.70
2023-05-08T16:48:02.438Z,1.83
2023-05-08T16:52:57.680Z,3.30
2023-05-08T16:55:24.679Z,4.90
2023-05-08T16:57:53.905Z,2.73
2023-05-08T17:00:21.352Z,4.82
2023-05-08T17:02:48.500Z,3.17
2023-05-08T17:05:18.799Z,3.53
2023-05-08T17:07:46.012Z,2.83
2023-05-08T17:10:13.034Z,5.43
2023-05-08T17:12:40.031Z,4.30
2023-05-08T17:15:07.374Z,3.00
2023-05-08T17:17:36.159Z,2.42
2023-05-08T17:20:03.325Z,3.40
2023-05-08T17:22:30.395Z,2.20
2023-05-08T17:24:57.521Z,1.60
2023-05-08T17:27:24.446Z,2.35
2023-05-08T17:29:51.400Z,3.05
2023-05-08T17:32:18.257Z,4.65
2023-05-08T17:34:45.214Z,5.97
2023-05-08T17:37:12.352Z,2.47
2023-05-08T17:39:39.464Z,3.23
2023-05-08T17:42:06.465Z,3.63
2023-05-08T17:44:33.388Z,4.45
2023-05-08T17:47:00.587Z,1.73
2023-05-08T17:49:27.706Z,2.07
2023-05-08T17:51:54.835Z,1.95
2023-05-08T17:54:22.007Z,3.53
2023-05-08T17:56:49.034Z,4.93
2023-05-08T17:59:16.349Z,4.60
2023-05-08T18:01:43.370Z,2.20
2023-05-08T18:04:10.724Z,1.67
2023-05-08T18:06:37.800Z,2.65
2023-05-08T18:09:05.496Z,4.05
2023-05-08T18:11:32.515Z,3.72
2023-05-08T18:13:59.468Z,2.80
2023-05-08T18:16:26.739Z,6.00
2023-05-08T18:18:53.859Z,4.15
2023-05-08T18:21:22.274Z,2.30
2023-05-08T18:23:49.550Z,2.33
2023-05-08T18:26:17.462Z,3.33
2023-05-08T18:31:13.664Z,1.90
2023-05-08T18:33:40.868Z,3.03
2023-05-08T18:36:08.232Z,5.35
2023-05-08T18:38:36.344Z,3.67
2023-05-08T18:43:31.832Z,3.83
2023-05-08T18:46:00.859Z,2.75
2023-05-08T18:48:29.397Z,4.50
2023-05-08T18:50:58.755Z,4.68
2023-05-08T18:53:26.032Z,3.38
2023-05-08T18:55:53.216Z,5.32
2023-05-08T18:58:20.601Z,5.53
2023-05-08T19:00:50.795Z,4.90
2023-05-08T19:03:18.486Z,4.60
2023-05-08T19:05:45.812Z,4.47
2023-05-08T19:08:13.404Z,2.13
2023-05-08T19:10:41.334Z,4.15
2023-05-08T19:13:08.498Z,2.97
2023-05-08T19:15:35.613Z,2.47
2023-05-08T19:18:03.156Z,3.57
2023-05-08T19:20:30.286Z,3.03
2023-05-08T19:22:57.584Z,3.65
2023-05-08T19:25:25.653Z,7.63
2023-05-08T19:27:52.713Z,6.03
2023-05-08T19:30:19.781Z,3.08
2023-05-08T19:32:46.696Z,4.40
2023-05-08T19:35:17.034Z,3.70
2023-05-08T19:37:44.162Z,2.47
2023-05-08T19:40:11.777Z,4.20
2023-05-08T19:42:39.109Z,3.10
2023-05-08T19:45:06.460Z,3.33
2023-05-08T19:47:33.435Z,4.13
2023-05-08T19:50:00.731Z,3.72
2023-05-08T19:52:27.805Z,3.80
2023-05-08T19:54:54.925Z,5.00
2023-05-08T19:57:22.092Z,3.83
2023-05-08T19:59:49.242Z,6.53
2023-05-08T20:02:16.699Z,3.72
2023-05-08T20:05:08.022Z,5.53
2023-05-08T20:07:31.172Z,2.83
2023-05-08T20:09:58.247Z,3.05
2023-05-08T20:12:25.564Z,5.13
2023-05-08T20:14:53.585Z,3.50
2023-05-08T20:19:47.980Z,4.60
2023-05-08T20:22:15.085Z,6.75
2023-05-08T20:24:42.258Z,4.97
2023-05-08T20:27:11.382Z,3.08
2023-05-08T20:29:38.362Z,3.08
2023-05-08T20:32:07.424Z,6.63
2023-05-08T20:34:35.007Z,4.07
2023-05-08T20:37:04.329Z,3.53
2023-05-08T20:39:31.603Z,5.20
2023-05-08T20:41:58.877Z,2.90
2023-05-08T20:44:27.217Z,6.00
2023-05-08T20:46:54.437Z,2.88
2023-05-08T20:49:21.544Z,3.33
2023-05-08T20:51:48.971Z,4.10
2023-05-08T20:54:16.102Z,2.85
2023-05-08T20:56:43.333Z,4.47
2023-05-08T20:59:10.330Z,3.95
2023-05-08T21:01:37.746Z,3.53
2023-05-08T21:04:05.046Z,4.70
2023-05-08T21:06:32.164Z,5.75
2023-05-08T21:08:59.436Z,4.00
2023-05-08T21:11:29.310Z,5.70
2023-05-08T21:13:58.131Z,3.65
2023-05-08T21:16:26.763Z,6.28
2023-05-08T21:18:55.459Z,3.03
2023-05-08T21:21:24.832Z,5.35
2023-05-08T21:23:51.677Z,4.05
2023-05-08T21:26:20.050Z,5.07
2023-05-08T21:28:47.227Z,4.10
2023-05-08T21:31:14.272Z,5.35
2023-05-08T21:33:41.500Z,4.05
2023-05-08T21:36:08.535Z,4.90
2023-05-08T21:38:35.643Z,4.60
2023-05-08T21:41:09.084Z,7.28
2023-05-08T21:43:36.726Z,4.90
2023-05-08T21:46:05.252Z,5.55
2023-05-08T21:48:35.624Z,8.68
2023-05-08T21:51:03.024Z,6.18
2023-05-08T21:53:30.760Z,5.40
2023-05-08T21:55:58.632Z,5.38
2023-05-08T21:58:25.946Z,5.90
2023-05-08T22:00:52.968Z,6.03
2023-05-08T22:03:20.073Z,4.03
2023-05-08T22:05:47.336Z,7.00
2023-05-08T22:08:14.258Z,6.57
2023-05-08T22:10:44.103Z,5.53
2023-05-08T22:13:12.666Z,5.40
2023-05-08T22:15:40.183Z,6.03
2023-05-08T22:18:07.234Z,4.47
2023-05-08T22:20:34.361Z,7.65
2023-05-08T22:23:01.634Z,7.07
2023-05-08T22:25:29.242Z,5.93
2023-05-08T22:27:56.315Z,6.65
2023-05-08T22:30:23.344Z,5.88
2023-05-08T22:32:58.371Z,6.03
2023-05-08T22:35:27.641Z,6.50
2023-05-08T22:37:55.420Z,8.52
2023-05-08T22:40:22.826Z,7.28
2023-05-08T22:42:51.971Z,9.13
2023-05-08T22:45:19.720Z,6.18
2023-05-08T22:47:47.830Z,7.00
2023-05-08T22:50:15.009Z,4.75
2023-05-08T22:52:42.182Z,4.33
2023-05-08T22:55:09.732Z,8.55
2023-05-08T22:57:37.010Z,5.82
2023-05-08T23:00:06.054Z,7.20
2023-05-08T23:02:36.572Z,6.90
2023-05-08T23:05:03.987Z,7.63
2023-05-08T23:07:31.335Z,6.90
2023-05-08T23:09:58.379Z,5.17
2023-05-08T23:12:25.584Z,5.90
2023-05-08T23:14:55.757Z,6.67
2023-05-08T23:17:24.974Z,6.15
2023-05-08T23:19:52.003Z,7.15
2023-05-08T23:22:20.633Z,8.13
2023-05-08T23:24:48.277Z,7.82
2023-05-08T23:27:15.498Z,6.32
2023-05-08T23:29:42.902Z,7.30
2023-05-08T23:32:09.781Z,5.90
2023-05-08T23:34:37.110Z,6.43
2023-05-08T23:37:04.530Z,5.88
2023-05-08T23:39:37.834Z,7.33
2023-05-08T23:42:04.841Z,7.18
2023-05-08T23:44:31.935Z,7.80
2023-05-08T23:46:59.220Z,5.95
2023-05-08T23:49:26.468Z,6.13
2023-05-08T23:51:53.916Z,6.13
2023-05-08T23:54:21.315Z,7.25
2023-05-08T23:56:48.715Z,6.05
2023-05-08T23:59:15.881Z,5.97
